Scout — WCZ5277 — position and weather

sailwx.info

Track history (hours):
 
Tides and Currents Weather Stations Pressure Air Temp Water Temp Dewpoint Dewpoint Depression Visibility Wind Speed Wind Dir Waves Ship Positions

Scout

Owner: ERGON MARINE & INDUSTRIAL SUPPLY, VICKSBURG, MS. More information available from US FCC via Universal Licensing System.

Last reported at 2016-Dec-03 13:33 UTC. Time now 2016-Dec-03 13:48 UTC.
Position N 32°20' W 090°54'.

Length 14 m.

Type: Towing. MMSI: 367402890.

Date/timePositionNaut miles runAvg speedWind from/ knotsBaromVisibWave heightAir tempDewpointWater temp
2016-Dec-03 13:33N 32°20' W 090°54'0 0.0
2016-Dec-03 12:33N 32°20' W 090°54'0 0.0
2016-Dec-03 11:33N 32°20' W 090°54'0 0.0
2016-Dec-03 10:33N 32°20' W 090°54'0 0.0
2016-Dec-03 09:33N 32°20' W 090°54'0 0.0
2016-Dec-03 08:33N 32°20' W 090°54'0 0.0
2016-Dec-03 07:33N 32°20' W 090°54'0 0.0
2016-Dec-03 06:33N 32°20' W 090°54'0 0.0
2016-Dec-03 05:33N 32°20' W 090°54'0 0.0
2016-Dec-03 04:33N 32°20' W 090°54'0 0.0
2016-Dec-03 03:33N 32°20' W 090°54'0 0.0
2016-Dec-03 02:33N 32°20' W 090°54'1 0.9
2016-Dec-03 01:33N 32°20' W 090°54'3 2.6
2016-Dec-03 00:33N 32°23' W 090°53'0 0.3
2016-Dec-02 23:33N 32°23' W 090°53'0 0.3
2016-Dec-02 22:33N 32°23' W 090°53'1 1.0
2016-Dec-02 21:33N 32°23' W 090°54'2 2.2
2016-Dec-02 20:33N 32°21' W 090°53'0 0.4
2016-Dec-02 19:33N 32°21' W 090°53'0 0.0
2016-Dec-02 18:33N 32°21' W 090°53'0 0.1
2016-Dec-02 17:33N 32°22' W 090°53'3 3.3
2016-Dec-02 16:33N 32°21' W 090°57'  
2016-Nov-30 11:19N 32°21' W 090°54'1 1.4
2016-Nov-30 10:33N 32°21' W 090°53'0 0.0
2016-Nov-30 09:33N 32°21' W 090°53'1 1.0
2016-Nov-30 08:33N 32°21' W 090°54'0 0.0
2016-Nov-30 07:33N 32°21' W 090°54'0 0.0
2016-Nov-30 06:33N 32°21' W 090°54'1 1.1
2016-Nov-30 05:33N 32°22' W 090°53'2 0.3
2016-Nov-29 21:32N 32°20' W 090°54'4 3.8
2016-Nov-29 20:33N 32°23' W 090°53'0 0.0
2016-Nov-29 19:33N 32°23' W 090°53'3 2.5
2016-Nov-29 18:33N 32°21' W 090°53'3 2.9
2016-Nov-29 17:33N 32°18' W 090°55'3 3.2
2016-Nov-29 16:33N 32°21' W 090°53'2 2.2
2016-Nov-29 15:33N 32°23' W 090°53'0 0.1
2016-Nov-29 14:33N 32°23' W 090°53'0 0.5
2016-Nov-29 13:33N 32°23' W 090°53'3 1.6
2016-Nov-29 11:21N 32°20' W 090°54'4 4.6
2016-Nov-29 10:33N 32°23' W 090°53'0 0.0
2016-Nov-29 09:33N 32°23' W 090°53'0 0.0
2016-Nov-29 08:33N 32°23' W 090°53'0 0.0
2016-Nov-29 07:33N 32°23' W 090°53'0 0.0
2016-Nov-29 06:33N 32°23' W 090°53'0 0.0
2016-Nov-29 05:33N 32°23' W 090°53'0 0.0
2016-Nov-29 04:33N 32°23' W 090°53'0 0.0
2016-Nov-29 03:33N 32°23' W 090°53'1 0.6
2016-Nov-29 02:33N 32°23' W 090°53'0 0.2
2016-Nov-29 01:33N 32°23' W 090°53'3 3.2
2016-Nov-29 00:33N 32°20' W 090°54'0 0.3
2016-Nov-28 23:13N 32°20' W 090°54'0 0.6
2016-Nov-28 22:33N 32°21' W 090°53'0 0.1
2016-Nov-28 21:33N 32°21' W 090°54'2 2.3
2016-Nov-28 20:33N 32°23' W 090°53'3 3.4
2016-Nov-28 19:33N 32°20' W 090°54'1 1.4
2016-Nov-28 18:33N 32°21' W 090°53'2 2.2
2016-Nov-28 17:33N 32°23' W 090°53'1 0.5
2016-Nov-28 16:33N 32°23' W 090°53'1 0.5
2016-Nov-28 15:33N 32°23' W 090°53'0 0.3
2016-Nov-28 14:33N 32°23' W 090°53'2 1.9
2016-Nov-28 13:33N 32°21' W 090°53'2 0.9
2016-Nov-28 11:24N 32°20' W 090°54'1 0.8
2016-Nov-28 10:33N 32°20' W 090°54'2 2.0
2016-Nov-28 09:33N 32°18' W 090°55'5 4.9
2016-Nov-28 08:33N 32°23' W 090°53'0 0.0
2016-Nov-28 07:33N 32°23' W 090°53'0 0.0
2016-Nov-28 06:33N 32°23' W 090°53'0 0.0
2016-Nov-28 05:33N 32°23' W 090°53'0 0.0
2016-Nov-28 04:33N 32°23' W 090°53'0 0.0
2016-Nov-28 03:33N 32°23' W 090°53'1 0.7
2016-Nov-28 02:33N 32°23' W 090°53'1 0.6
2016-Nov-28 01:33N 32°22' W 090°53'3 2.8
2016-Nov-28 00:33N 32°20' W 090°54'0 0.0
2016-Nov-27 23:33N 32°20' W 090°54'0 0.0
2016-Nov-27 22:33N 32°20' W 090°54'0 0.0
2016-Nov-27 21:33N 32°20' W 090°54'0 0.0
2016-Nov-27 20:33N 32°20' W 090°54'0 0.0
2016-Nov-27 19:33N 32°20' W 090°54'0 0.0
2016-Nov-27 18:33N 32°20' W 090°54'0 0.0
2016-Nov-27 17:33N 32°20' W 090°54'0 0.0
2016-Nov-27 16:34N 32°20' W 090°54'0 0.0
2016-Nov-27 15:33N 32°20' W 090°54'0 0.0
2016-Nov-27 14:34N 32°20' W 090°54'0 0.0
2016-Nov-27 13:33N 32°20' W 090°54'0 0.0
2016-Nov-27 12:33N 32°20' W 090°54'0 0.0
2016-Nov-27 11:33N 32°20' W 090°54'3 2.8
2016-Nov-27 10:34N 32°22' W 090°53'0 0.0
2016-Nov-27 09:33N 32°22' W 090°53'4 3.7
2016-Nov-27 08:33N 32°19' W 090°54'2 2.0
2016-Nov-27 07:33N 32°21' W 090°53'2 1.8
2016-Nov-27 06:34N 32°22' W 090°53'0 0.0
2016-Nov-27 05:33N 32°22' W 090°53'0 0.0
2016-Nov-27 04:33N 32°22' W 090°53'0 0.0
2016-Nov-27 03:34N 32°22' W 090°53'0 0.0
2016-Nov-27 02:34N 32°22' W 090°53'2 2.3
2016-Nov-27 01:33N 32°20' W 090°54'  
Track history (hours):
 
Tides and Currents Weather Stations Pressure Air Temp Water Temp Dewpoint Dewpoint Depression Visibility Wind Speed Wind Dir Waves Ship Positions

Scout

Owner: ERGON MARINE & INDUSTRIAL SUPPLY, VICKSBURG, MS. More information available from US FCC via Universal Licensing System.

Last reported at 2016-Dec-03 13:33 UTC. Time now 2016-Dec-03 13:48 UTC.
Position N 32°20' W 090°54'.

Length 14 m.

Type: Towing. MMSI: 367402890.

Date/timePositionNaut miles runAvg speedWind from/ knotsBaromVisibWave heightAir tempDewpointWater temp
2016-Dec-03 13:33N 32°20' W 090°54'0 0.0
2016-Dec-03 12:33N 32°20' W 090°54'0 0.0
2016-Dec-03 11:33N 32°20' W 090°54'0 0.0
2016-Dec-03 10:33N 32°20' W 090°54'0 0.0
2016-Dec-03 09:33N 32°20' W 090°54'0 0.0
2016-Dec-03 08:33N 32°20' W 090°54'0 0.0
2016-Dec-03 07:33N 32°20' W 090°54'0 0.0
2016-Dec-03 06:33N 32°20' W 090°54'0 0.0
2016-Dec-03 05:33N 32°20' W 090°54'0 0.0
2016-Dec-03 04:33N 32°20' W 090°54'0 0.0
2016-Dec-03 03:33N 32°20' W 090°54'0 0.0
2016-Dec-03 02:33N 32°20' W 090°54'1 0.9
2016-Dec-03 01:33N 32°20' W 090°54'3 2.6
2016-Dec-03 00:33N 32°23' W 090°53'0 0.3
2016-Dec-02 23:33N 32°23' W 090°53'0 0.3
2016-Dec-02 22:33N 32°23' W 090°53'1 1.0
2016-Dec-02 21:33N 32°23' W 090°54'2 2.2
2016-Dec-02 20:33N 32°21' W 090°53'0 0.4
2016-Dec-02 19:33N 32°21' W 090°53'0 0.0
2016-Dec-02 18:33N 32°21' W 090°53'0 0.1
2016-Dec-02 17:33N 32°22' W 090°53'3 3.3
2016-Dec-02 16:33N 32°21' W 090°57'  
2016-Nov-30 11:19N 32°21' W 090°54'1 1.4
2016-Nov-30 10:33N 32°21' W 090°53'0 0.0
2016-Nov-30 09:33N 32°21' W 090°53'1 1.0
2016-Nov-30 08:33N 32°21' W 090°54'0 0.0
2016-Nov-30 07:33N 32°21' W 090°54'0 0.0
2016-Nov-30 06:33N 32°21' W 090°54'1 1.1
2016-Nov-30 05:33N 32°22' W 090°53'2 0.3
2016-Nov-29 21:32N 32°20' W 090°54'4 3.8
2016-Nov-29 20:33N 32°23' W 090°53'0 0.0
2016-Nov-29 19:33N 32°23' W 090°53'3 2.5
2016-Nov-29 18:33N 32°21' W 090°53'3 2.9
2016-Nov-29 17:33N 32°18' W 090°55'3 3.2
2016-Nov-29 16:33N 32°21' W 090°53'2 2.2
2016-Nov-29 15:33N 32°23' W 090°53'0 0.1
2016-Nov-29 14:33N 32°23' W 090°53'0 0.5
2016-Nov-29 13:33N 32°23' W 090°53'3 1.6
2016-Nov-29 11:21N 32°20' W 090°54'4 4.6
2016-Nov-29 10:33N 32°23' W 090°53'0 0.0
2016-Nov-29 09:33N 32°23' W 090°53'0 0.0
2016-Nov-29 08:33N 32°23' W 090°53'0 0.0
2016-Nov-29 07:33N 32°23' W 090°53'0 0.0
2016-Nov-29 06:33N 32°23' W 090°53'0 0.0
2016-Nov-29 05:33N 32°23' W 090°53'0 0.0
2016-Nov-29 04:33N 32°23' W 090°53'0 0.0
2016-Nov-29 03:33N 32°23' W 090°53'1 0.6
2016-Nov-29 02:33N 32°23' W 090°53'0 0.2
2016-Nov-29 01:33N 32°23' W 090°53'3 3.2
2016-Nov-29 00:33N 32°20' W 090°54'0 0.3
2016-Nov-28 23:13N 32°20' W 090°54'0 0.6
2016-Nov-28 22:33N 32°21' W 090°53'0 0.1
2016-Nov-28 21:33N 32°21' W 090°54'2 2.3
2016-Nov-28 20:33N 32°23' W 090°53'3 3.4
2016-Nov-28 19:33N 32°20' W 090°54'1 1.4
2016-Nov-28 18:33N 32°21' W 090°53'2 2.2
2016-Nov-28 17:33N 32°23' W 090°53'1 0.5
2016-Nov-28 16:33N 32°23' W 090°53'1 0.5
2016-Nov-28 15:33N 32°23' W 090°53'0 0.3
2016-Nov-28 14:33N 32°23' W 090°53'2 1.9
2016-Nov-28 13:33N 32°21' W 090°53'2 0.9
2016-Nov-28 11:24N 32°20' W 090°54'1 0.8
2016-Nov-28 10:33N 32°20' W 090°54'2 2.0
2016-Nov-28 09:33N 32°18' W 090°55'5 4.9
2016-Nov-28 08:33N 32°23' W 090°53'0 0.0
2016-Nov-28 07:33N 32°23' W 090°53'0 0.0
2016-Nov-28 06:33N 32°23' W 090°53'0 0.0
2016-Nov-28 05:33N 32°23' W 090°53'0 0.0
2016-Nov-28 04:33N 32°23' W 090°53'0 0.0
2016-Nov-28 03:33N 32°23' W 090°53'1 0.7
2016-Nov-28 02:33N 32°23' W 090°53'1 0.6
2016-Nov-28 01:33N 32°22' W 090°53'3 2.8
2016-Nov-28 00:33N 32°20' W 090°54'0 0.0
2016-Nov-27 23:33N 32°20' W 090°54'0 0.0
2016-Nov-27 22:33N 32°20' W 090°54'0 0.0
2016-Nov-27 21:33N 32°20' W 090°54'0 0.0
2016-Nov-27 20:33N 32°20' W 090°54'0 0.0
2016-Nov-27 19:33N 32°20' W 090°54'0 0.0
2016-Nov-27 18:33N 32°20' W 090°54'0 0.0
2016-Nov-27 17:33N 32°20' W 090°54'0 0.0
2016-Nov-27 16:34N 32°20' W 090°54'0 0.0
2016-Nov-27 15:33N 32°20' W 090°54'0 0.0
2016-Nov-27 14:34N 32°20' W 090°54'0 0.0
2016-Nov-27 13:33N 32°20' W 090°54'0 0.0
2016-Nov-27 12:33N 32°20' W 090°54'0 0.0
2016-Nov-27 11:33N 32°20' W 090°54'3 2.8
2016-Nov-27 10:34N 32°22' W 090°53'0 0.0
2016-Nov-27 09:33N 32°22' W 090°53'4 3.7
2016-Nov-27 08:33N 32°19' W 090°54'2 2.0
2016-Nov-27 07:33N 32°21' W 090°53'2 1.8
2016-Nov-27 06:34N 32°22' W 090°53'0 0.0
2016-Nov-27 05:33N 32°22' W 090°53'0 0.0
2016-Nov-27 04:33N 32°22' W 090°53'0 0.0
2016-Nov-27 03:34N 32°22' W 090°53'0 0.0
2016-Nov-27 02:34N 32°22' W 090°53'2 2.3
2016-Nov-27 01:33N 32°20' W 090°54'  

Dump ship's entire track history